sensor_id;sensor_type;location;lat;lon;timestamp;temperature;humidity
17236;DHT22;8734;59.272;17.780;2023-04-07T00:02:16;1.70;99.90
17236;DHT22;8734;59.272;17.780;2023-04-07T00:04:44;1.70;99.90
17236;DHT22;8734;59.272;17.780;2023-04-07T00:07:14;1.70;99.90
17236;DHT22;8734;59.272;17.780;2023-04-07T00:09:43;1.60;99.90
17236;DHT22;8734;59.272;17.780;2023-04-07T00:12:11;1.70;99.90
17236;DHT22;8734;59.272;17.780;2023-04-07T00:14:39;1.60;99.90
17236;DHT22;8734;59.272;17.780;2023-04-07T00:17:07;1.60;99.90
17236;DHT22;8734;59.272;17.780;2023-04-07T00:19:35;1.60;99.90
17236;DHT22;8734;59.272;17.780;2023-04-07T00:22:04;1.60;99.90
17236;DHT22;8734;59.272;17.780;2023-04-07T00:24:33;1.60;99.90
17236;DHT22;8734;59.272;17.780;2023-04-07T00:27:02;1.60;99.90
17236;DHT22;8734;59.272;17.780;2023-04-07T00:29:30;1.60;99.90
17236;DHT22;8734;59.272;17.780;2023-04-07T00:31:59;1.50;99.90
17236;DHT22;8734;59.272;17.780;2023-04-07T00:34:27;1.60;99.90
17236;DHT22;8734;59.272;17.780;2023-04-07T00:36:55;1.60;99.90
17236;DHT22;8734;59.272;17.780;2023-04-07T00:39:24;1.60;99.90
17236;DHT22;8734;59.272;17.780;2023-04-07T00:41:54;1.60;99.90
17236;DHT22;8734;59.272;17.780;2023-04-07T00:44:23;1.60;99.90
17236;DHT22;8734;59.272;17.780;2023-04-07T00:46:52;1.60;99.90
17236;DHT22;8734;59.272;17.780;2023-04-07T00:49:20;1.60;99.90
17236;DHT22;8734;59.272;17.780;2023-04-07T00:51:48;1.60;99.90
17236;DHT22;8734;59.272;17.780;2023-04-07T00:54:17;1.60;99.90
17236;DHT22;8734;59.272;17.780;2023-04-07T00:56:46;1.50;99.90
17236;DHT22;8734;59.272;17.780;2023-04-07T00:59:15;1.50;99.90
17236;DHT22;8734;59.272;17.780;2023-04-07T01:01:47;1.50;99.90
17236;DHT22;8734;59.272;17.780;2023-04-07T01:04:24;1.60;99.90
17236;DHT22;8734;59.272;17.780;2023-04-07T01:06:58;1.50;99.90
17236;DHT22;8734;59.272;17.780;2023-04-07T01:09:35;1.50;99.90
17236;DHT22;8734;59.272;17.780;2023-04-07T01:12:09;1.50;99.90
17236;DHT22;8734;59.272;17.780;2023-04-07T01:14:46;1.50;99.90
17236;DHT22;8734;59.272;17.780;2023-04-07T01:17:18;1.50;99.90
17236;DHT22;8734;59.272;17.780;2023-04-07T01:19:55;1.50;99.90
17236;DHT22;8734;59.272;17.780;2023-04-07T01:22:28;1.50;99.90
17236;DHT22;8734;59.272;17.780;2023-04-07T01:25:26;1.50;99.90
17236;DHT22;8734;59.272;17.780;2023-04-07T01:28:13;1.50;99.90
17236;DHT22;8734;59.272;17.780;2023-04-07T01:30:45;1.50;99.90
17236;DHT22;8734;59.272;17.780;2023-04-07T01:33:15;1.50;99.90
17236;DHT22;8734;59.272;17.780;2023-04-07T01:35:45;1.50;99.90
17236;DHT22;8734;59.272;17.780;2023-04-07T01:38:14;1.50;99.90
17236;DHT22;8734;59.272;17.780;2023-04-07T01:40:43;1.50;99.90
17236;DHT22;8734;59.272;17.780;2023-04-07T01:43:14;1.50;99.90
17236;DHT22;8734;59.272;17.780;2023-04-07T01:45:45;1.50;99.90
17236;DHT22;8734;59.272;17.780;2023-04-07T01:48:14;1.50;99.90
17236;DHT22;8734;59.272;17.780;2023-04-07T01:50:43;1.50;99.90
17236;DHT22;8734;59.272;17.780;2023-04-07T01:53:13;1.50;99.90
17236;DHT22;8734;59.272;17.780;2023-04-07T01:55:42;1.50;99.90
17236;DHT22;8734;59.272;17.780;2023-04-07T01:58:12;1.50;99.90
17236;DHT22;8734;59.272;17.780;2023-04-07T02:00:40;1.50;99.90
17236;DHT22;8734;59.272;17.780;2023-04-07T02:03:14;1.50;99.90
17236;DHT22;8734;59.272;17.780;2023-04-07T02:05:48;1.50;99.90
17236;DHT22;8734;59.272;17.780;2023-04-07T02:08:19;1.50;99.90
17236;DHT22;8734;59.272;17.780;2023-04-07T02:10:49;1.50;99.90
17236;DHT22;8734;59.272;17.780;2023-04-07T02:13:19;1.50;99.90
17236;DHT22;8734;59.272;17.780;2023-04-07T02:15:49;1.50;99.90
17236;DHT22;8734;59.272;17.780;2023-04-07T02:18:20;1.50;99.90
17236;DHT22;8734;59.272;17.780;2023-04-07T02:20:49;1.50;99.90
17236;DHT22;8734;59.272;17.780;2023-04-07T02:23:19;1.50;99.90
17236;DHT22;8734;59.272;17.780;2023-04-07T02:25:48;1.50;99.90
17236;DHT22;8734;59.272;17.780;2023-04-07T02:28:16;1.60;99.90
17236;DHT22;8734;59.272;17.780;2023-04-07T02:30:44;1.60;99.90
17236;DHT22;8734;59.272;17.780;2023-04-07T02:33:13;1.50;99.90
17236;DHT22;8734;59.272;17.780;2023-04-07T02:35:43;1.60;99.90
17236;DHT22;8734;59.272;17.780;2023-04-07T02:38:11;1.50;99.90
17236;DHT22;8734;59.272;17.780;2023-04-07T02:40:40;1.60;99.90
17236;DHT22;8734;59.272;17.780;2023-04-07T02:43:08;1.50;99.90
17236;DHT22;8734;59.272;17.780;2023-04-07T02:45:36;1.50;99.90
17236;DHT22;8734;59.272;17.780;2023-04-07T02:48:05;1.60;99.90
17236;DHT22;8734;59.272;17.780;2023-04-07T02:50:33;1.60;99.90
17236;DHT22;8734;59.272;17.780;2023-04-07T02:53:03;1.60;99.90
17236;DHT22;8734;59.272;17.780;2023-04-07T02:55:31;1.60;99.90
17236;DHT22;8734;59.272;17.780;2023-04-07T02:58:00;1.60;99.90
17236;DHT22;8734;59.272;17.780;2023-04-07T03:00:28;1.50;99.90
17236;DHT22;8734;59.272;17.780;2023-04-07T03:02:57;1.50;99.90
17236;DHT22;8734;59.272;17.780;2023-04-07T03:05:26;1.50;99.90
17236;DHT22;8734;59.272;17.780;2023-04-07T03:07:54;1.50;99.90
17236;DHT22;8734;59.272;17.780;2023-04-07T03:10:24;1.60;99.90
17236;DHT22;8734;59.272;17.780;2023-04-07T03:12:52;1.50;99.90
17236;DHT22;8734;59.272;17.780;2023-04-07T03:15:20;1.50;99.90
17236;DHT22;8734;59.272;17.780;2023-04-07T03:17:49;1.50;99.90
17236;DHT22;8734;59.272;17.780;2023-04-07T03:20:17;1.50;99.90
17236;DHT22;8734;59.272;17.780;2023-04-07T03:22:45;1.60;99.90
17236;DHT22;8734;59.272;17.780;2023-04-07T03:25:14;1.60;99.90
17236;DHT22;8734;59.272;17.780;2023-04-07T03:27:44;1.60;99.90
17236;DHT22;8734;59.272;17.780;2023-04-07T03:30:12;1.60;99.90
17236;DHT22;8734;59.272;17.780;2023-04-07T03:32:41;1.60;99.90
17236;DHT22;8734;59.272;17.780;2023-04-07T03:35:10;1.60;99.90
17236;DHT22;8734;59.272;17.780;2023-04-07T03:37:38;1.60;99.90
17236;DHT22;8734;59.272;17.780;2023-04-07T03:40:07;1.60;99.90
17236;DHT22;8734;59.272;17.780;2023-04-07T03:42:35;1.60;99.90
17236;DHT22;8734;59.272;17.780;2023-04-07T03:45:06;1.60;99.90
17236;DHT22;8734;59.272;17.780;2023-04-07T03:47:35;1.60;99.90
17236;DHT22;8734;59.272;17.780;2023-04-07T03:50:04;1.60;99.90
17236;DHT22;8734;59.272;17.780;2023-04-07T03:52:32;1.60;99.90
17236;DHT22;8734;59.272;17.780;2023-04-07T03:55:01;1.60;99.90
17236;DHT22;8734;59.272;17.780;2023-04-07T03:57:29;1.60;99.90
17236;DHT22;8734;59.272;17.780;2023-04-07T03:59:58;1.60;99.90
17236;DHT22;8734;59.272;17.780;2023-04-07T04:02:27;1.60;99.90
17236;DHT22;8734;59.272;17.780;2023-04-07T04:04:56;1.70;99.90
17236;DHT22;8734;59.272;17.780;2023-04-07T04:07:24;1.70;99.90
17236;DHT22;8734;59.272;17.780;2023-04-07T04:09:53;1.60;99.90
17236;DHT22;8734;59.272;17.780;2023-04-07T04:12:21;1.70;99.90
17236;DHT22;8734;59.272;17.780;2023-04-07T04:14:50;1.70;99.90
17236;DHT22;8734;59.272;17.780;2023-04-07T04:17:19;1.60;99.90
17236;DHT22;8734;59.272;17.780;2023-04-07T04:19:48;1.60;99.90
17236;DHT22;8734;59.272;17.780;2023-04-07T04:22:17;1.70;99.90
17236;DHT22;8734;59.272;17.780;2023-04-07T04:24:45;1.60;99.90
17236;DHT22;8734;59.272;17.780;2023-04-07T04:27:14;1.60;99.90
17236;DHT22;8734;59.272;17.780;2023-04-07T04:29:42;1.70;99.90
17236;DHT22;8734;59.272;17.780;2023-04-07T04:32:10;1.70;99.90
17236;DHT22;8734;59.272;17.780;2023-04-07T04:34:39;1.70;99.90
17236;DHT22;8734;59.272;17.780;2023-04-07T04:37:09;1.70;99.90
17236;DHT22;8734;59.272;17.780;2023-04-07T04:39:38;1.70;99.90
17236;DHT22;8734;59.272;17.780;2023-04-07T04:42:06;1.70;99.90
17236;DHT22;8734;59.272;17.780;2023-04-07T04:44:34;1.70;99.90
17236;DHT22;8734;59.272;17.780;2023-04-07T04:47:02;1.70;99.90
17236;DHT22;8734;59.272;17.780;2023-04-07T04:49:31;1.70;99.90
17236;DHT22;8734;59.272;17.780;2023-04-07T04:51:59;1.70;99.90
17236;DHT22;8734;59.272;17.780;2023-04-07T04:54:29;1.70;99.90
17236;DHT22;8734;59.272;17.780;2023-04-07T04:56:57;1.80;99.90
17236;DHT22;8734;59.272;17.780;2023-04-07T04:59:27;1.70;99.90
17236;DHT22;8734;59.272;17.780;2023-04-07T05:01:55;1.70;99.90
17236;DHT22;8734;59.272;17.780;2023-04-07T05:04:24;1.80;99.90
17236;DHT22;8734;59.272;17.780;2023-04-07T05:06:54;1.80;99.90
17236;DHT22;8734;59.272;17.780;2023-04-07T05:09:23;1.80;99.90
17236;DHT22;8734;59.272;17.780;2023-04-07T05:11:52;1.80;99.90
17236;DHT22;8734;59.272;17.780;2023-04-07T05:14:21;1.80;99.90
17236;DHT22;8734;59.272;17.780;2023-04-07T05:16:50;1.80;99.90
17236;DHT22;8734;59.272;17.780;2023-04-07T05:19:18;1.80;99.90
17236;DHT22;8734;59.272;17.780;2023-04-07T05:21:47;1.80;99.90
17236;DHT22;8734;59.272;17.780;2023-04-07T05:24:15;1.80;99.90
17236;DHT22;8734;59.272;17.780;2023-04-07T05:26:43;1.80;99.90
17236;DHT22;8734;59.272;17.780;2023-04-07T05:29:13;1.80;99.90
17236;DHT22;8734;59.272;17.780;2023-04-07T05:31:41;1.80;99.90
17236;DHT22;8734;59.272;17.780;2023-04-07T05:34:10;1.80;99.90
17236;DHT22;8734;59.272;17.780;2023-04-07T05:36:38;1.80;99.90
17236;DHT22;8734;59.272;17.780;2023-04-07T05:39:07;1.80;99.90
17236;DHT22;8734;59.272;17.780;2023-04-07T05:41:35;1.90;99.90
17236;DHT22;8734;59.272;17.780;2023-04-07T05:44:03;1.80;99.90
17236;DHT22;8734;59.272;17.780;2023-04-07T05:46:34;1.80;99.90
17236;DHT22;8734;59.272;17.780;2023-04-07T05:49:02;1.80;99.90
17236;DHT22;8734;59.272;17.780;2023-04-07T05:51:46;1.90;99.90
17236;DHT22;8734;59.272;17.780;2023-04-07T05:54:15;1.80;99.90
17236;DHT22;8734;59.272;17.780;2023-04-07T05:56:43;1.90;99.90
17236;DHT22;8734;59.272;17.780;2023-04-07T05:59:13;1.90;99.90
17236;DHT22;8734;59.272;17.780;2023-04-07T06:01:43;1.90;99.90
17236;DHT22;8734;59.272;17.780;2023-04-07T06:04:11;1.90;99.90
17236;DHT22;8734;59.272;17.780;2023-04-07T06:06:40;2.00;99.90
17236;DHT22;8734;59.272;17.780;2023-04-07T06:09:08;1.90;99.90
17236;DHT22;8734;59.272;17.780;2023-04-07T06:11:36;1.90;99.90
17236;DHT22;8734;59.272;17.780;2023-04-07T06:14:05;1.90;99.90
17236;DHT22;8734;59.272;17.780;2023-04-07T06:16:33;2.00;99.90
17236;DHT22;8734;59.272;17.780;2023-04-07T06:19:03;2.00;99.90
17236;DHT22;8734;59.272;17.780;2023-04-07T06:21:31;2.00;99.90
17236;DHT22;8734;59.272;17.780;2023-04-07T06:24:00;2.10;99.90
17236;DHT22;8734;59.272;17.780;2023-04-07T06:26:28;2.10;99.90
17236;DHT22;8734;59.272;17.780;2023-04-07T06:28:57;2.10;99.90
17236;DHT22;8734;59.272;17.780;2023-04-07T06:31:25;2.10;99.90
17236;DHT22;8734;59.272;17.780;2023-04-07T06:33:53;2.10;99.90
17236;DHT22;8734;59.272;17.780;2023-04-07T06:36:24;2.10;99.90
17236;DHT22;8734;59.272;17.780;2023-04-07T06:38:53;2.20;99.90
17236;DHT22;8734;59.272;17.780;2023-04-07T06:41:22;2.20;99.90
17236;DHT22;8734;59.272;17.780;2023-04-07T06:43:50;2.20;99.90
17236;DHT22;8734;59.272;17.780;2023-04-07T06:46:19;2.30;99.90
17236;DHT22;8734;59.272;17.780;2023-04-07T06:48:47;2.30;99.90
17236;DHT22;8734;59.272;17.780;2023-04-07T06:51:16;2.30;99.90
17236;DHT22;8734;59.272;17.780;2023-04-07T06:53:45;2.30;99.90
17236;DHT22;8734;59.272;17.780;2023-04-07T06:56:15;2.40;99.90
17236;DHT22;8734;59.272;17.780;2023-04-07T06:58:43;2.40;99.90
17236;DHT22;8734;59.272;17.780;2023-04-07T07:01:11;2.50;99.90
17236;DHT22;8734;59.272;17.780;2023-04-07T07:03:40;2.40;99.90
17236;DHT22;8734;59.272;17.780;2023-04-07T07:06:08;2.50;99.90
17236;DHT22;8734;59.272;17.780;2023-04-07T07:08:37;2.50;99.90
17236;DHT22;8734;59.272;17.780;2023-04-07T07:11:06;2.50;99.90
17236;DHT22;8734;59.272;17.780;2023-04-07T07:13:35;2.50;99.90
17236;DHT22;8734;59.272;17.780;2023-04-07T07:16:03;2.50;99.90
17236;DHT22;8734;59.272;17.780;2023-04-07T07:18:32;2.50;99.90
17236;DHT22;8734;59.272;17.780;2023-04-07T07:21:00;2.60;99.90
17236;DHT22;8734;59.272;17.780;2023-04-07T07:23:28;2.60;99.90
17236;DHT22;8734;59.272;17.780;2023-04-07T07:25:57;2.60;99.90
17236;DHT22;8734;59.272;17.780;2023-04-07T07:28:26;2.60;99.90
17236;DHT22;8734;59.272;17.780;2023-04-07T07:30:55;2.60;99.90
17236;DHT22;8734;59.272;17.780;2023-04-07T07:33:23;2.60;99.90
17236;DHT22;8734;59.272;17.780;2023-04-07T07:35:51;2.60;99.90
17236;DHT22;8734;59.272;17.780;2023-04-07T07:38:20;2.60;99.90
17236;DHT22;8734;59.272;17.780;2023-04-07T07:40:48;2.70;99.90
17236;DHT22;8734;59.272;17.780;2023-04-07T07:43:17;2.60;99.90
17236;DHT22;8734;59.272;17.780;2023-04-07T07:45:47;2.70;99.90
17236;DHT22;8734;59.272;17.780;2023-04-07T07:48:15;2.70;99.90
17236;DHT22;8734;59.272;17.780;2023-04-07T07:50:43;2.80;99.90
17236;DHT22;8734;59.272;17.780;2023-04-07T07:53:13;2.90;99.90
17236;DHT22;8734;59.272;17.780;2023-04-07T07:55:41;2.90;99.90
17236;DHT22;8734;59.272;17.780;2023-04-07T07:58:09;2.80;99.90
17236;DHT22;8734;59.272;17.780;2023-04-07T08:00:38;2.90;99.90
17236;DHT22;8734;59.272;17.780;2023-04-07T08:03:08;2.90;99.90
17236;DHT22;8734;59.272;17.780;2023-04-07T08:05:36;2.90;99.90
17236;DHT22;8734;59.272;17.780;2023-04-07T08:08:05;2.90;99.90
17236;DHT22;8734;59.272;17.780;2023-04-07T08:10:33;3.00;99.90
17236;DHT22;8734;59.272;17.780;2023-04-07T08:13:02;2.90;99.90
17236;DHT22;8734;59.272;17.780;2023-04-07T08:15:31;3.00;99.90
17236;DHT22;8734;59.272;17.780;2023-04-07T08:17:59;3.00;99.90
17236;DHT22;8734;59.272;17.780;2023-04-07T08:20:32;3.00;99.90
17236;DHT22;8734;59.272;17.780;2023-04-07T08:23:00;3.00;99.90
17236;DHT22;8734;59.272;17.780;2023-04-07T08:25:29;3.00;99.90
17236;DHT22;8734;59.272;17.780;2023-04-07T08:27:57;3.10;99.90
17236;DHT22;8734;59.272;17.780;2023-04-07T08:30:26;3.10;99.90
17236;DHT22;8734;59.272;17.780;2023-04-07T08:32:54;3.10;99.90
17236;DHT22;8734;59.272;17.780;2023-04-07T08:35:23;3.10;99.90
17236;DHT22;8734;59.272;17.780;2023-04-07T08:37:53;3.10;99.90
17236;DHT22;8734;59.272;17.780;2023-04-07T08:40:21;3.10;99.90
17236;DHT22;8734;59.272;17.780;2023-04-07T08:42:50;3.10;99.90
17236;DHT22;8734;59.272;17.780;2023-04-07T08:45:19;3.20;99.90
17236;DHT22;8734;59.272;17.780;2023-04-07T08:47:49;3.20;99.90
17236;DHT22;8734;59.272;17.780;2023-04-07T08:50:21;3.40;99.90
17236;DHT22;8734;59.272;17.780;2023-04-07T08:52:55;3.50;99.90
17236;DHT22;8734;59.272;17.780;2023-04-07T08:55:24;3.40;99.90
17236;DHT22;8734;59.272;17.780;2023-04-07T08:57:53;3.50;99.90
17236;DHT22;8734;59.272;17.780;2023-04-07T09:00:22;3.60;99.90
17236;DHT22;8734;59.272;17.780;2023-04-07T09:02:51;3.50;99.90
17236;DHT22;8734;59.272;17.780;2023-04-07T09:05:20;3.50;99.90
17236;DHT22;8734;59.272;17.780;2023-04-07T09:07:50;3.60;99.90
17236;DHT22;8734;59.272;17.780;2023-04-07T09:10:20;3.70;99.90
17236;DHT22;8734;59.272;17.780;2023-04-07T09:12:49;3.70;99.90
17236;DHT22;8734;59.272;17.780;2023-04-07T09:15:17;3.60;99.90
17236;DHT22;8734;59.272;17.780;2023-04-07T09:17:46;3.70;99.90
17236;DHT22;8734;59.272;17.780;2023-04-07T09:20:15;3.70;99.90
17236;DHT22;8734;59.272;17.780;2023-04-07T09:22:43;3.70;99.90
17236;DHT22;8734;59.272;17.780;2023-04-07T09:25:14;3.70;99.90
17236;DHT22;8734;59.272;17.780;2023-04-07T09:28:00;3.60;99.90
17236;DHT22;8734;59.272;17.780;2023-04-07T09:30:31;3.70;99.90
17236;DHT22;8734;59.272;17.780;2023-04-07T09:33:00;3.60;99.90
17236;DHT22;8734;59.272;17.780;2023-04-07T09:35:29;3.70;99.90
17236;DHT22;8734;59.272;17.780;2023-04-07T09:38:02;3.80;99.90
17236;DHT22;8734;59.272;17.780;2023-04-07T09:40:31;3.80;99.90
17236;DHT22;8734;59.272;17.780;2023-04-07T09:43:04;3.80;99.90
17236;DHT22;8734;59.272;17.780;2023-04-07T09:45:32;3.80;99.90
17236;DHT22;8734;59.272;17.780;2023-04-07T09:48:06;3.80;99.90
17236;DHT22;8734;59.272;17.780;2023-04-07T09:50:37;3.80;99.90
17236;DHT22;8734;59.272;17.780;2023-04-07T09:53:07;4.00;99.90
17236;DHT22;8734;59.272;17.780;2023-04-07T09:55:36;3.90;99.90
17236;DHT22;8734;59.272;17.780;2023-04-07T09:58:10;4.00;99.90
17236;DHT22;8734;59.272;17.780;2023-04-07T10:00:40;3.90;99.90
17236;DHT22;8734;59.272;17.780;2023-04-07T10:03:08;3.90;99.90
17236;DHT22;8734;59.272;17.780;2023-04-07T10:05:38;3.90;99.90
17236;DHT22;8734;59.272;17.780;2023-04-07T10:08:09;3.90;99.90
17236;DHT22;8734;59.272;17.780;2023-04-07T10:10:40;3.90;99.90
17236;DHT22;8734;59.272;17.780;2023-04-07T10:13:10;3.90;99.90
17236;DHT22;8734;59.272;17.780;2023-04-07T10:15:39;3.90;99.90
17236;DHT22;8734;59.272;17.780;2023-04-07T10:18:09;3.80;99.90
17236;DHT22;8734;59.272;17.780;2023-04-07T10:20:39;3.80;99.90
17236;DHT22;8734;59.272;17.780;2023-04-07T10:23:15;3.80;99.90
17236;DHT22;8734;59.272;17.780;2023-04-07T10:25:46;3.80;99.90
17236;DHT22;8734;59.272;17.780;2023-04-07T10:28:18;3.80;99.90
17236;DHT22;8734;59.272;17.780;2023-04-07T10:30:49;3.80;99.90
17236;DHT22;8734;59.272;17.780;2023-04-07T10:33:19;3.80;99.90
17236;DHT22;8734;59.272;17.780;2023-04-07T10:36:08;3.90;99.90
17236;DHT22;8734;59.272;17.780;2023-04-07T10:38:36;3.80;99.90
17236;DHT22;8734;59.272;17.780;2023-04-07T10:41:31;3.80;99.90
17236;DHT22;8734;59.272;17.780;2023-04-07T10:44:02;3.80;99.90
17236;DHT22;8734;59.272;17.780;2023-04-07T10:47:03;3.80;99.90
17236;DHT22;8734;59.272;17.780;2023-04-07T10:49:32;3.90;99.90
17236;DHT22;8734;59.272;17.780;2023-04-07T10:52:22;3.90;99.90
17236;DHT22;8734;59.272;17.780;2023-04-07T10:58:19;3.80;99.90
17236;DHT22;8734;59.272;17.780;2023-04-07T11:01:17;3.80;99.90
17236;DHT22;8734;59.272;17.780;2023-04-07T11:04:07;3.80;99.90
17236;DHT22;8734;59.272;17.780;2023-04-07T11:06:45;3.80;99.90
17236;DHT22;8734;59.272;17.780;2023-04-07T11:09:18;3.80;99.90
17236;DHT22;8734;59.272;17.780;2023-04-07T11:11:47;3.80;99.90
17236;DHT22;8734;59.272;17.780;2023-04-07T11:14:24;3.80;99.90
17236;DHT22;8734;59.272;17.780;2023-04-07T11:16:56;3.90;99.90
17236;DHT22;8734;59.272;17.780;2023-04-07T11:19:24;3.90;99.90
17236;DHT22;8734;59.272;17.780;2023-04-07T11:22:12;3.90;99.90
17236;DHT22;8734;59.272;17.780;2023-04-07T11:24:55;3.90;99.90
17236;DHT22;8734;59.272;17.780;2023-04-07T11:27:23;3.90;99.90
17236;DHT22;8734;59.272;17.780;2023-04-07T11:29:52;3.90;99.90
17236;DHT22;8734;59.272;17.780;2023-04-07T11:32:23;4.00;99.90
17236;DHT22;8734;59.272;17.780;2023-04-07T11:34:56;4.10;99.90
17236;DHT22;8734;59.272;17.780;2023-04-07T11:37:25;4.10;99.90
17236;DHT22;8734;59.272;17.780;2023-04-07T11:39:56;4.10;99.90
17236;DHT22;8734;59.272;17.780;2023-04-07T11:42:31;4.20;99.90
17236;DHT22;8734;59.272;17.780;2023-04-07T11:44:59;4.20;99.90
17236;DHT22;8734;59.272;17.780;2023-04-07T11:47:37;4.30;99.90
17236;DHT22;8734;59.272;17.780;2023-04-07T11:50:06;4.30;99.90
17236;DHT22;8734;59.272;17.780;2023-04-07T11:52:40;4.40;99.90
17236;DHT22;8734;59.272;17.780;2023-04-07T11:55:16;4.30;99.90
17236;DHT22;8734;59.272;17.780;2023-04-07T11:57:48;4.40;99.90
17236;DHT22;8734;59.272;17.780;2023-04-07T12:00:18;4.40;99.90
17236;DHT22;8734;59.272;17.780;2023-04-07T12:02:49;4.40;99.90
17236;DHT22;8734;59.272;17.780;2023-04-07T12:05:17;4.40;99.90
17236;DHT22;8734;59.272;17.780;2023-04-07T12:07:52;4.50;99.90
17236;DHT22;8734;59.272;17.780;2023-04-07T12:10:23;4.50;99.90
17236;DHT22;8734;59.272;17.780;2023-04-07T12:12:52;4.50;99.90
17236;DHT22;8734;59.272;17.780;2023-04-07T12:15:20;4.50;99.90
17236;DHT22;8734;59.272;17.780;2023-04-07T12:17:50;4.40;99.90
17236;DHT22;8734;59.272;17.780;2023-04-07T12:20:18;4.40;99.90
17236;DHT22;8734;59.272;17.780;2023-04-07T12:22:46;4.40;99.90
17236;DHT22;8734;59.272;17.780;2023-04-07T12:25:15;4.40;99.90
17236;DHT22;8734;59.272;17.780;2023-04-07T12:27:43;4.40;99.90
17236;DHT22;8734;59.272;17.780;2023-04-07T12:30:12;4.40;99.90
17236;DHT22;8734;59.272;17.780;2023-04-07T12:32:41;4.50;99.90
17236;DHT22;8734;59.272;17.780;2023-04-07T12:35:11;4.50;99.90
17236;DHT22;8734;59.272;17.780;2023-04-07T12:37:39;4.50;99.90
17236;DHT22;8734;59.272;17.780;2023-04-07T12:40:08;4.60;99.90
17236;DHT22;8734;59.272;17.780;2023-04-07T12:42:36;4.40;99.90
17236;DHT22;8734;59.272;17.780;2023-04-07T12:45:05;4.50;99.90
17236;DHT22;8734;59.272;17.780;2023-04-07T12:47:34;4.60;99.90
17236;DHT22;8734;59.272;17.780;2023-04-07T12:50:03;4.60;99.90
17236;DHT22;8734;59.272;17.780;2023-04-07T12:52:32;4.70;99.90
17236;DHT22;8734;59.272;17.780;2023-04-07T12:55:02;4.70;99.90
17236;DHT22;8734;59.272;17.780;2023-04-07T12:57:30;4.80;99.90
17236;DHT22;8734;59.272;17.780;2023-04-07T12:59:59;4.80;99.90
17236;DHT22;8734;59.272;17.780;2023-04-07T13:02:27;4.70;99.90
17236;DHT22;8734;59.272;17.780;2023-04-07T13:04:56;4.70;99.90
17236;DHT22;8734;59.272;17.780;2023-04-07T13:07:24;4.70;99.90
17236;DHT22;8734;59.272;17.780;2023-04-07T13:09:54;4.60;99.90
17236;DHT22;8734;59.272;17.780;2023-04-07T13:12:23;4.60;99.90
17236;DHT22;8734;59.272;17.780;2023-04-07T13:14:51;4.60;99.90
17236;DHT22;8734;59.272;17.780;2023-04-07T13:17:26;4.60;99.90
17236;DHT22;8734;59.272;17.780;2023-04-07T13:19:55;4.70;99.90
17236;DHT22;8734;59.272;17.780;2023-04-07T13:22:24;4.80;99.90
17236;DHT22;8734;59.272;17.780;2023-04-07T13:24:53;4.80;99.90
17236;DHT22;8734;59.272;17.780;2023-04-07T13:27:22;4.90;99.90
17236;DHT22;8734;59.272;17.780;2023-04-07T13:29:50;4.90;99.90
17236;DHT22;8734;59.272;17.780;2023-04-07T13:32:19;4.80;99.90
17236;DHT22;8734;59.272;17.780;2023-04-07T13:34:47;4.70;99.90
17236;DHT22;8734;59.272;17.780;2023-04-07T13:37:16;4.80;99.90
17236;DHT22;8734;59.272;17.780;2023-04-07T13:39:45;4.70;99.90
17236;DHT22;8734;59.272;17.780;2023-04-07T13:42:15;4.80;99.90
17236;DHT22;8734;59.272;17.780;2023-04-07T13:44:45;4.90;99.90
17236;DHT22;8734;59.272;17.780;2023-04-07T13:47:14;5.00;99.90
17236;DHT22;8734;59.272;17.780;2023-04-07T13:49:46;5.00;99.90
17236;DHT22;8734;59.272;17.780;2023-04-07T13:52:14;4.90;99.90
17236;DHT22;8734;59.272;17.780;2023-04-07T13:54:43;4.80;99.90
17236;DHT22;8734;59.272;17.780;2023-04-07T13:57:13;4.80;99.90
17236;DHT22;8734;59.272;17.780;2023-04-07T13:59:48;4.80;99.90
17236;DHT22;8734;59.272;17.780;2023-04-07T14:02:18;4.90;99.90
17236;DHT22;8734;59.272;17.780;2023-04-07T14:04:46;5.00;99.90
17236;DHT22;8734;59.272;17.780;2023-04-07T14:07:15;5.00;99.90
17236;DHT22;8734;59.272;17.780;2023-04-07T14:09:44;5.00;99.90
17236;DHT22;8734;59.272;17.780;2023-04-07T14:12:15;4.90;99.90
17236;DHT22;8734;59.272;17.780;2023-04-07T14:14:44;4.90;99.90
17236;DHT22;8734;59.272;17.780;2023-04-07T14:17:12;5.00;99.90
17236;DHT22;8734;59.272;17.780;2023-04-07T14:19:40;4.90;99.90
17236;DHT22;8734;59.272;17.780;2023-04-07T14:22:09;4.90;99.90
17236;DHT22;8734;59.272;17.780;2023-04-07T14:24:37;4.90;99.90
17236;DHT22;8734;59.272;17.780;2023-04-07T14:27:05;5.00;99.90
17236;DHT22;8734;59.272;17.780;2023-04-07T14:29:35;5.00;99.90
17236;DHT22;8734;59.272;17.780;2023-04-07T14:32:04;4.90;99.90
17236;DHT22;8734;59.272;17.780;2023-04-07T14:34:32;5.00;99.90
17236;DHT22;8734;59.272;17.780;2023-04-07T14:37:01;5.00;99.90
17236;DHT22;8734;59.272;17.780;2023-04-07T14:39:29;5.00;99.90
17236;DHT22;8734;59.272;17.780;2023-04-07T14:41:57;5.00;99.90
17236;DHT22;8734;59.272;17.780;2023-04-07T14:44:26;5.00;99.90
17236;DHT22;8734;59.272;17.780;2023-04-07T14:46:58;5.00;99.90
17236;DHT22;8734;59.272;17.780;2023-04-07T14:49:27;5.00;99.90
17236;DHT22;8734;59.272;17.780;2023-04-07T14:51:55;5.10;99.90
17236;DHT22;8734;59.272;17.780;2023-04-07T14:54:24;5.20;99.90
17236;DHT22;8734;59.272;17.780;2023-04-07T14:56:52;5.20;99.90
17236;DHT22;8734;59.272;17.780;2023-04-07T14:59:20;5.20;99.90
17236;DHT22;8734;59.272;17.780;2023-04-07T15:01:49;5.10;99.90
17236;DHT22;8734;59.272;17.780;2023-04-07T15:04:19;5.00;99.90
17236;DHT22;8734;59.272;17.780;2023-04-07T15:06:48;5.10;99.90
17236;DHT22;8734;59.272;17.780;2023-04-07T15:09:16;5.00;99.90
17236;DHT22;8734;59.272;17.780;2023-04-07T15:11:44;5.10;99.90
17236;DHT22;8734;59.272;17.780;2023-04-07T15:14:13;5.10;99.90
17236;DHT22;8734;59.272;17.780;2023-04-07T15:16:42;5.10;99.90
17236;DHT22;8734;59.272;17.780;2023-04-07T15:19:13;5.10;99.90
17236;DHT22;8734;59.272;17.780;2023-04-07T15:21:43;5.10;99.90
17236;DHT22;8734;59.272;17.780;2023-04-07T15:24:11;5.10;99.90
17236;DHT22;8734;59.272;17.780;2023-04-07T15:26:42;5.10;99.90
17236;DHT22;8734;59.272;17.780;2023-04-07T15:29:10;5.10;99.90
17236;DHT22;8734;59.272;17.780;2023-04-07T15:31:38;5.10;99.90
17236;DHT22;8734;59.272;17.780;2023-04-07T15:34:07;5.10;99.90
17236;DHT22;8734;59.272;17.780;2023-04-07T15:36:35;5.10;99.90
17236;DHT22;8734;59.272;17.780;2023-04-07T15:39:05;5.10;99.90
17236;DHT22;8734;59.272;17.780;2023-04-07T15:41:33;5.10;99.90
17236;DHT22;8734;59.272;17.780;2023-04-07T15:44:02;5.00;99.90
17236;DHT22;8734;59.272;17.780;2023-04-07T15:46:31;5.10;99.90
17236;DHT22;8734;59.272;17.780;2023-04-07T15:49:00;5.10;99.90
17236;DHT22;8734;59.272;17.780;2023-04-07T15:51:28;5.00;99.90
17236;DHT22;8734;59.272;17.780;2023-04-07T15:53:57;5.10;99.90
17236;DHT22;8734;59.272;17.780;2023-04-07T15:56:28;5.00;99.90
17236;DHT22;8734;59.272;17.780;2023-04-07T15:58:57;5.00;99.90
17236;DHT22;8734;59.272;17.780;2023-04-07T16:01:25;4.90;99.90
17236;DHT22;8734;59.272;17.780;2023-04-07T16:03:53;4.90;99.90
17236;DHT22;8734;59.272;17.780;2023-04-07T16:06:22;4.80;99.90